sensor_id;sensor_type;location;lat;lon;timestamp;P1;durP1;ratioP1;P2;durP2;ratioP2
13147;SDS011;6639;50.956;4.242;2022-09-09T00:00:22;5.82;;;1.98;;
13147;SDS011;6639;50.956;4.242;2022-09-09T00:02:53;2.45;;;1.38;;
13147;SDS011;6639;50.956;4.242;2022-09-09T00:05:28;4.97;;;1.90;;
13147;SDS011;6639;50.956;4.242;2022-09-09T00:08:00;2.50;;;1.70;;
13147;SDS011;6639;50.956;4.242;2022-09-09T00:10:30;2.97;;;1.50;;
13147;SDS011;6639;50.956;4.242;2022-09-09T00:13:01;4.43;;;1.40;;
13147;SDS011;6639;50.956;4.242;2022-09-09T00:15:42;7.32;;;1.50;;
13147;SDS011;6639;50.956;4.242;2022-09-09T00:18:20;3.00;;;1.38;;
13147;SDS011;6639;50.956;4.242;2022-09-09T00:20:52;5.68;;;1.67;;
13147;SDS011;6639;50.956;4.242;2022-09-09T00:23:25;4.95;;;1.83;;
13147;SDS011;6639;50.956;4.242;2022-09-09T00:25:58;4.57;;;2.22;;
13147;SDS011;6639;50.956;4.242;2022-09-09T00:28:29;5.75;;;2.47;;
13147;SDS011;6639;50.956;4.242;2022-09-09T00:30:59;4.18;;;2.22;;
13147;SDS011;6639;50.956;4.242;2022-09-09T00:33:30;7.53;;;2.65;;
13147;SDS011;6639;50.956;4.242;2022-09-09T00:35:57;3.67;;;2.80;;
13147;SDS011;6639;50.956;4.242;2022-09-09T00:38:31;6.05;;;2.65;;
13147;SDS011;6639;50.956;4.242;2022-09-09T00:41:01;4.43;;;3.30;;
13147;SDS011;6639;50.956;4.242;2022-09-09T00:43:35;4.80;;;2.97;;
13147;SDS011;6639;50.956;4.242;2022-09-09T00:46:10;7.68;;;3.10;;
13147;SDS011;6639;50.956;4.242;2022-09-09T00:48:54;4.95;;;3.35;;
13147;SDS011;6639;50.956;4.242;2022-09-09T00:51:31;8.80;;;3.85;;
13147;SDS011;6639;50.956;4.242;2022-09-09T00:54:21;5.43;;;3.15;;
13147;SDS011;6639;50.956;4.242;2022-09-09T00:57:04;4.03;;;3.45;;
13147;SDS011;6639;50.956;4.242;2022-09-09T00:59:42;5.55;;;3.20;;
13147;SDS011;6639;50.956;4.242;2022-09-09T01:02:13;5.35;;;3.85;;
13147;SDS011;6639;50.956;4.242;2022-09-09T01:04:48;7.38;;;3.70;;
13147;SDS011;6639;50.956;4.242;2022-09-09T01:07:16;7.45;;;3.35;;
13147;SDS011;6639;50.956;4.242;2022-09-09T01:09:53;5.22;;;3.28;;
13147;SDS011;6639;50.956;4.242;2022-09-09T01:12:27;5.88;;;3.30;;
13147;SDS011;6639;50.956;4.242;2022-09-09T01:15:01;4.40;;;3.22;;
13147;SDS011;6639;50.956;4.242;2022-09-09T01:17:36;6.47;;;3.35;;
13147;SDS011;6639;50.956;4.242;2022-09-09T01:20:10;4.47;;;2.88;;
13147;SDS011;6639;50.956;4.242;2022-09-09T01:22:44;7.32;;;3.33;;
13147;SDS011;6639;50.956;4.242;2022-09-09T01:28:30;7.38;;;3.42;;
13147;SDS011;6639;50.956;4.242;2022-09-09T01:31:02;5.88;;;2.80;;
13147;SDS011;6639;50.956;4.242;2022-09-09T01:33:30;4.68;;;2.92;;
13147;SDS011;6639;50.956;4.242;2022-09-09T01:35:58;6.15;;;2.85;;
13147;SDS011;6639;50.956;4.242;2022-09-09T01:38:28;6.15;;;2.38;;
13147;SDS011;6639;50.956;4.242;2022-09-09T01:40:59;6.60;;;2.50;;
13147;SDS011;6639;50.956;4.242;2022-09-09T01:43:25;3.25;;;1.92;;
13147;SDS011;6639;50.956;4.242;2022-09-09T01:45:54;4.68;;;2.20;;
13147;SDS011;6639;50.956;4.242;2022-09-09T01:48:24;2.85;;;2.10;;
13147;SDS011;6639;50.956;4.242;2022-09-09T01:50:52;3.83;;;1.70;;
13147;SDS011;6639;50.956;4.242;2022-09-09T01:53:19;4.28;;;1.73;;
13147;SDS011;6639;50.956;4.242;2022-09-09T01:55:49;5.03;;;1.83;;
13147;SDS011;6639;50.956;4.242;2022-09-09T01:58:34;3.55;;;1.60;;
13147;SDS011;6639;50.956;4.242;2022-09-09T02:01:10;3.80;;;2.33;;
13147;SDS011;6639;50.956;4.242;2022-09-09T02:03:42;4.28;;;1.80;;
13147;SDS011;6639;50.956;4.242;2022-09-09T02:06:17;6.38;;;2.00;;
13147;SDS011;6639;50.956;4.242;2022-09-09T02:08:52;5.30;;;1.58;;
13147;SDS011;6639;50.956;4.242;2022-09-09T02:11:23;3.55;;;1.98;;
13147;SDS011;6639;50.956;4.242;2022-09-09T02:13:53;7.60;;;1.90;;
13147;SDS011;6639;50.956;4.242;2022-09-09T02:16:24;5.03;;;2.03;;
13147;SDS011;6639;50.956;4.242;2022-09-09T02:18:55;6.10;;;2.47;;
13147;SDS011;6639;50.956;4.242;2022-09-09T02:21:27;3.70;;;1.85;;
13147;SDS011;6639;50.956;4.242;2022-09-09T02:23:56;6.43;;;2.25;;
13147;SDS011;6639;50.956;4.242;2022-09-09T02:26:29;4.25;;;2.10;;
13147;SDS011;6639;50.956;4.242;2022-09-09T02:29:02;5.20;;;1.63;;
13147;SDS011;6639;50.956;4.242;2022-09-09T02:31:32;5.22;;;2.72;;
13147;SDS011;6639;50.956;4.242;2022-09-09T02:34:02;8.52;;;2.50;;
13147;SDS011;6639;50.956;4.242;2022-09-09T02:36:31;5.03;;;2.28;;
13147;SDS011;6639;50.956;4.242;2022-09-09T02:39:00;8.90;;;2.55;;
13147;SDS011;6639;50.956;4.242;2022-09-09T02:41:28;5.28;;;2.63;;
13147;SDS011;6639;50.956;4.242;2022-09-09T02:43:58;5.80;;;2.20;;
13147;SDS011;6639;50.956;4.242;2022-09-09T02:46:30;4.63;;;1.90;;
13147;SDS011;6639;50.956;4.242;2022-09-09T02:49:08;4.45;;;2.50;;
13147;SDS011;6639;50.956;4.242;2022-09-09T02:51:40;6.07;;;2.63;;
13147;SDS011;6639;50.956;4.242;2022-09-09T02:54:16;7.00;;;2.42;;
13147;SDS011;6639;50.956;4.242;2022-09-09T02:56:53;5.20;;;2.45;;
13147;SDS011;6639;50.956;4.242;2022-09-09T02:59:21;9.32;;;2.65;;
13147;SDS011;6639;50.956;4.242;2022-09-09T03:01:52;6.45;;;2.10;;
13147;SDS011;6639;50.956;4.242;2022-09-09T03:04:19;3.92;;;2.22;;
13147;SDS011;6639;50.956;4.242;2022-09-09T03:06:47;6.95;;;2.45;;
13147;SDS011;6639;50.956;4.242;2022-09-09T03:09:14;6.05;;;2.22;;
13147;SDS011;6639;50.956;4.242;2022-09-09T03:11:41;6.50;;;2.83;;
13147;SDS011;6639;50.956;4.242;2022-09-09T03:14:08;6.75;;;2.47;;
13147;SDS011;6639;50.956;4.242;2022-09-09T03:16:36;6.65;;;2.83;;
13147;SDS011;6639;50.956;4.242;2022-09-09T03:19:04;6.97;;;2.28;;
13147;SDS011;6639;50.956;4.242;2022-09-09T03:21:32;4.43;;;2.55;;
13147;SDS011;6639;50.956;4.242;2022-09-09T03:23:58;4.82;;;2.42;;
13147;SDS011;6639;50.956;4.242;2022-09-09T03:26:28;5.50;;;2.00;;
13147;SDS011;6639;50.956;4.242;2022-09-09T03:28:56;5.93;;;1.88;;
13147;SDS011;6639;50.956;4.242;2022-09-09T03:31:25;7.82;;;2.28;;
13147;SDS011;6639;50.956;4.242;2022-09-09T03:33:55;7.50;;;2.63;;
13147;SDS011;6639;50.956;4.242;2022-09-09T03:36:24;6.75;;;2.35;;
13147;SDS011;6639;50.956;4.242;2022-09-09T03:38:53;3.95;;;2.42;;
13147;SDS011;6639;50.956;4.242;2022-09-09T03:41:20;7.72;;;2.60;;
13147;SDS011;6639;50.956;4.242;2022-09-09T03:43:48;8.27;;;2.20;;
13147;SDS011;6639;50.956;4.242;2022-09-09T03:46:15;5.65;;;2.30;;
13147;SDS011;6639;50.956;4.242;2022-09-09T03:48:42;6.38;;;2.38;;
13147;SDS011;6639;50.956;4.242;2022-09-09T03:51:09;4.47;;;2.13;;
13147;SDS011;6639;50.956;4.242;2022-09-09T03:53:37;5.15;;;2.13;;
13147;SDS011;6639;50.956;4.242;2022-09-09T03:56:05;5.97;;;2.35;;
13147;SDS011;6639;50.956;4.242;2022-09-09T03:58:33;6.65;;;2.53;;
13147;SDS011;6639;50.956;4.242;2022-09-09T04:01:01;6.05;;;2.20;;
13147;SDS011;6639;50.956;4.242;2022-09-09T04:03:29;4.13;;;1.98;;
13147;SDS011;6639;50.956;4.242;2022-09-09T04:05:57;8.45;;;2.58;;
13147;SDS011;6639;50.956;4.242;2022-09-09T04:08:27;4.60;;;2.33;;
13147;SDS011;6639;50.956;4.242;2022-09-09T04:10:57;9.88;;;2.63;;
13147;SDS011;6639;50.956;4.242;2022-09-09T04:13:26;7.28;;;2.80;;
13147;SDS011;6639;50.956;4.242;2022-09-09T04:15:54;6.03;;;2.55;;
13147;SDS011;6639;50.956;4.242;2022-09-09T04:18:22;7.57;;;2.20;;
13147;SDS011;6639;50.956;4.242;2022-09-09T04:20:51;6.95;;;2.20;;
13147;SDS011;6639;50.956;4.242;2022-09-09T04:23:19;4.88;;;2.25;;
13147;SDS011;6639;50.956;4.242;2022-09-09T04:25:46;6.35;;;2.70;;
13147;SDS011;6639;50.956;4.242;2022-09-09T04:28:16;5.07;;;2.67;;
13147;SDS011;6639;50.956;4.242;2022-09-09T04:30:44;8.73;;;3.00;;
13147;SDS011;6639;50.956;4.242;2022-09-09T04:33:11;7.85;;;2.67;;
13147;SDS011;6639;50.956;4.242;2022-09-09T04:35:39;6.85;;;2.50;;
13147;SDS011;6639;50.956;4.242;2022-09-09T04:38:10;9.63;;;2.55;;
13147;SDS011;6639;50.956;4.242;2022-09-09T04:40:37;9.40;;;2.78;;
13147;SDS011;6639;50.956;4.242;2022-09-09T04:43:08;7.72;;;2.40;;
13147;SDS011;6639;50.956;4.242;2022-09-09T04:45:36;8.20;;;2.78;;
13147;SDS011;6639;50.956;4.242;2022-09-09T04:48:05;8.73;;;2.78;;
13147;SDS011;6639;50.956;4.242;2022-09-09T04:50:32;8.55;;;2.85;;
13147;SDS011;6639;50.956;4.242;2022-09-09T04:52:59;7.88;;;2.72;;
13147;SDS011;6639;50.956;4.242;2022-09-09T04:55:27;7.45;;;2.70;;
13147;SDS011;6639;50.956;4.242;2022-09-09T04:57:55;7.13;;;2.75;;
13147;SDS011;6639;50.956;4.242;2022-09-09T05:00:22;3.72;;;2.20;;
13147;SDS011;6639;50.956;4.242;2022-09-09T05:02:51;7.35;;;2.58;;
13147;SDS011;6639;50.956;4.242;2022-09-09T05:05:17;4.32;;;2.28;;
13147;SDS011;6639;50.956;4.242;2022-09-09T05:07:44;8.95;;;2.33;;
13147;SDS011;6639;50.956;4.242;2022-09-09T05:10:12;6.47;;;2.60;;
13147;SDS011;6639;50.956;4.242;2022-09-09T05:12:42;8.75;;;3.08;;
13147;SDS011;6639;50.956;4.242;2022-09-09T05:15:09;10.50;;;2.75;;
13147;SDS011;6639;50.956;4.242;2022-09-09T05:17:36;6.55;;;2.72;;
13147;SDS011;6639;50.956;4.242;2022-09-09T05:20:05;11.02;;;3.13;;
13147;SDS011;6639;50.956;4.242;2022-09-09T05:22:32;8.27;;;3.03;;
13147;SDS011;6639;50.956;4.242;2022-09-09T05:24:59;9.93;;;2.80;;
13147;SDS011;6639;50.956;4.242;2022-09-09T05:27:26;7.38;;;2.03;;
13147;SDS011;6639;50.956;4.242;2022-09-09T05:29:53;12.82;;;3.33;;
13147;SDS011;6639;50.956;4.242;2022-09-09T05:32:20;8.68;;;2.60;;
13147;SDS011;6639;50.956;4.242;2022-09-09T05:34:47;7.63;;;2.60;;
13147;SDS011;6639;50.956;4.242;2022-09-09T05:37:15;7.22;;;2.53;;
13147;SDS011;6639;50.956;4.242;2022-09-09T05:39:42;6.22;;;2.28;;
13147;SDS011;6639;50.956;4.242;2022-09-09T05:42:09;6.70;;;2.65;;
13147;SDS011;6639;50.956;4.242;2022-09-09T05:44:36;10.35;;;2.78;;
13147;SDS011;6639;50.956;4.242;2022-09-09T05:47:03;7.35;;;2.83;;
13147;SDS011;6639;50.956;4.242;2022-09-09T05:49:30;6.68;;;2.35;;
13147;SDS011;6639;50.956;4.242;2022-09-09T05:51:57;15.18;;;3.10;;
13147;SDS011;6639;50.956;4.242;2022-09-09T05:54:25;7.30;;;2.80;;
13147;SDS011;6639;50.956;4.242;2022-09-09T05:56:52;7.05;;;2.42;;
13147;SDS011;6639;50.956;4.242;2022-09-09T05:59:19;8.55;;;2.88;;
13147;SDS011;6639;50.956;4.242;2022-09-09T06:01:46;6.03;;;2.60;;
13147;SDS011;6639;50.956;4.242;2022-09-09T06:04:13;7.32;;;2.53;;
13147;SDS011;6639;50.956;4.242;2022-09-09T06:06:40;5.85;;;2.63;;
13147;SDS011;6639;50.956;4.242;2022-09-09T06:09:07;11.50;;;2.88;;
13147;SDS011;6639;50.956;4.242;2022-09-09T06:11:38;8.25;;;2.50;;
13147;SDS011;6639;50.956;4.242;2022-09-09T06:14:05;9.52;;;2.63;;
13147;SDS011;6639;50.956;4.242;2022-09-09T06:16:34;6.00;;;2.25;;
13147;SDS011;6639;50.956;4.242;2022-09-09T06:19:02;7.72;;;2.53;;
13147;SDS011;6639;50.956;4.242;2022-09-09T06:21:30;12.88;;;3.30;;
13147;SDS011;6639;50.956;4.242;2022-09-09T06:23:59;7.00;;;2.22;;
13147;SDS011;6639;50.956;4.242;2022-09-09T06:26:27;9.10;;;2.40;;
13147;SDS011;6639;50.956;4.242;2022-09-09T06:28:57;5.45;;;2.40;;
13147;SDS011;6639;50.956;4.242;2022-09-09T06:31:26;7.55;;;2.60;;
13147;SDS011;6639;50.956;4.242;2022-09-09T06:33:55;7.47;;;2.40;;
13147;SDS011;6639;50.956;4.242;2022-09-09T06:36:24;5.93;;;2.40;;
13147;SDS011;6639;50.956;4.242;2022-09-09T06:38:52;6.30;;;2.40;;
13147;SDS011;6639;50.956;4.242;2022-09-09T06:41:20;7.22;;;2.55;;
13147;SDS011;6639;50.956;4.242;2022-09-09T06:43:48;9.68;;;2.70;;
13147;SDS011;6639;50.956;4.242;2022-09-09T06:46:17;5.43;;;1.98;;
13147;SDS011;6639;50.956;4.242;2022-09-09T06:48:45;8.88;;;2.40;;
13147;SDS011;6639;50.956;4.242;2022-09-09T06:51:13;10.68;;;2.80;;
13147;SDS011;6639;50.956;4.242;2022-09-09T06:53:41;8.60;;;2.63;;
13147;SDS011;6639;50.956;4.242;2022-09-09T06:56:19;6.07;;;2.03;;
13147;SDS011;6639;50.956;4.242;2022-09-09T06:58:48;7.35;;;2.13;;
13147;SDS011;6639;50.956;4.242;2022-09-09T07:01:18;7.63;;;2.20;;
13147;SDS011;6639;50.956;4.242;2022-09-09T07:03:48;8.05;;;2.42;;
13147;SDS011;6639;50.956;4.242;2022-09-09T07:06:16;8.98;;;2.92;;
13147;SDS011;6639;50.956;4.242;2022-09-09T07:08:48;6.20;;;1.92;;
13147;SDS011;6639;50.956;4.242;2022-09-09T07:11:18;6.25;;;2.13;;
13147;SDS011;6639;50.956;4.242;2022-09-09T07:13:46;6.05;;;1.90;;
13147;SDS011;6639;50.956;4.242;2022-09-09T07:16:14;9.30;;;2.05;;
13147;SDS011;6639;50.956;4.242;2022-09-09T07:18:44;7.57;;;2.30;;
13147;SDS011;6639;50.956;4.242;2022-09-09T07:21:11;5.57;;;2.13;;
13147;SDS011;6639;50.956;4.242;2022-09-09T07:23:39;8.05;;;2.13;;
13147;SDS011;6639;50.956;4.242;2022-09-09T07:26:07;11.23;;;2.50;;
13147;SDS011;6639;50.956;4.242;2022-09-09T07:28:35;9.23;;;2.25;;
13147;SDS011;6639;50.956;4.242;2022-09-09T07:31:03;5.93;;;2.20;;
13147;SDS011;6639;50.956;4.242;2022-09-09T07:33:32;6.45;;;2.63;;
13147;SDS011;6639;50.956;4.242;2022-09-09T07:36:06;6.53;;;2.10;;
13147;SDS011;6639;50.956;4.242;2022-09-09T07:38:37;4.88;;;2.20;;
13147;SDS011;6639;50.956;4.242;2022-09-09T07:41:06;5.05;;;1.85;;
13147;SDS011;6639;50.956;4.242;2022-09-09T07:43:36;9.73;;;2.45;;
13147;SDS011;6639;50.956;4.242;2022-09-09T07:46:07;5.85;;;2.33;;
13147;SDS011;6639;50.956;4.242;2022-09-09T07:48:35;5.22;;;2.25;;
13147;SDS011;6639;50.956;4.242;2022-09-09T07:51:05;8.60;;;2.70;;
13147;SDS011;6639;50.956;4.242;2022-09-09T07:53:34;5.70;;;2.05;;
13147;SDS011;6639;50.956;4.242;2022-09-09T07:56:04;10.30;;;2.70;;
13147;SDS011;6639;50.956;4.242;2022-09-09T07:58:32;7.35;;;2.05;;
13147;SDS011;6639;50.956;4.242;2022-09-09T08:00:58;4.38;;;1.65;;
13147;SDS011;6639;50.956;4.242;2022-09-09T08:03:25;6.03;;;2.20;;
13147;SDS011;6639;50.956;4.242;2022-09-09T08:05:52;8.30;;;2.42;;
13147;SDS011;6639;50.956;4.242;2022-09-09T08:08:20;5.93;;;2.25;;
13147;SDS011;6639;50.956;4.242;2022-09-09T08:10:47;6.25;;;2.15;;
13147;SDS011;6639;50.956;4.242;2022-09-09T08:13:14;5.60;;;2.00;;
13147;SDS011;6639;50.956;4.242;2022-09-09T08:15:43;7.40;;;2.58;;
13147;SDS011;6639;50.956;4.242;2022-09-09T08:18:10;6.35;;;2.17;;
13147;SDS011;6639;50.956;4.242;2022-09-09T08:20:37;7.40;;;2.50;;
13147;SDS011;6639;50.956;4.242;2022-09-09T08:23:03;6.88;;;2.00;;
13147;SDS011;6639;50.956;4.242;2022-09-09T08:25:32;8.93;;;2.10;;
13147;SDS011;6639;50.956;4.242;2022-09-09T08:27:59;6.88;;;1.98;;
13147;SDS011;6639;50.956;4.242;2022-09-09T08:30:26;7.78;;;1.90;;
13147;SDS011;6639;50.956;4.242;2022-09-09T08:32:53;5.78;;;2.17;;
13147;SDS011;6639;50.956;4.242;2022-09-09T08:35:20;3.88;;;2.05;;
13147;SDS011;6639;50.956;4.242;2022-09-09T08:37:47;8.63;;;2.20;;
13147;SDS011;6639;50.956;4.242;2022-09-09T08:40:18;5.20;;;1.92;;
13147;SDS011;6639;50.956;4.242;2022-09-09T08:42:50;5.38;;;2.20;;
13147;SDS011;6639;50.956;4.242;2022-09-09T08:45:22;6.13;;;1.80;;
13147;SDS011;6639;50.956;4.242;2022-09-09T08:48:00;10.05;;;2.30;;
13147;SDS011;6639;50.956;4.242;2022-09-09T08:50:37;4.35;;;1.70;;
13147;SDS011;6639;50.956;4.242;2022-09-09T08:53:09;6.15;;;2.03;;
13147;SDS011;6639;50.956;4.242;2022-09-09T08:55:43;8.32;;;2.42;;
13147;SDS011;6639;50.956;4.242;2022-09-09T08:58:16;5.75;;;2.33;;
13147;SDS011;6639;50.956;4.242;2022-09-09T09:00:49;6.55;;;2.40;;
13147;SDS011;6639;50.956;4.242;2022-09-09T09:03:27;5.80;;;2.08;;
13147;SDS011;6639;50.956;4.242;2022-09-09T09:06:01;6.22;;;2.20;;
13147;SDS011;6639;50.956;4.242;2022-09-09T09:08:35;8.38;;;2.13;;
13147;SDS011;6639;50.956;4.242;2022-09-09T09:11:09;5.57;;;1.98;;
13147;SDS011;6639;50.956;4.242;2022-09-09T09:13:39;5.82;;;2.17;;
13147;SDS011;6639;50.956;4.242;2022-09-09T09:16:13;5.63;;;2.03;;
13147;SDS011;6639;50.956;4.242;2022-09-09T09:18:47;5.57;;;1.98;;
13147;SDS011;6639;50.956;4.242;2022-09-09T09:21:16;7.13;;;2.00;;
13147;SDS011;6639;50.956;4.242;2022-09-09T09:23:49;6.80;;;2.45;;
13147;SDS011;6639;50.956;4.242;2022-09-09T09:26:22;7.28;;;2.22;;
13147;SDS011;6639;50.956;4.242;2022-09-09T09:28:54;9.15;;;2.35;;
13147;SDS011;6639;50.956;4.242;2022-09-09T09:31:22;4.40;;;1.92;;
13147;SDS011;6639;50.956;4.242;2022-09-09T09:33:52;5.50;;;2.10;;
13147;SDS011;6639;50.956;4.242;2022-09-09T09:36:21;5.28;;;2.03;;
13147;SDS011;6639;50.956;4.242;2022-09-09T09:38:52;4.53;;;1.60;;
13147;SDS011;6639;50.956;4.242;2022-09-09T09:41:33;5.03;;;1.70;;
13147;SDS011;6639;50.956;4.242;2022-09-09T09:44:18;6.15;;;1.77;;
13147;SDS011;6639;50.956;4.242;2022-09-09T09:46:52;4.97;;;2.03;;
13147;SDS011;6639;50.956;4.242;2022-09-09T09:49:19;2.33;;;1.40;;
13147;SDS011;6639;50.956;4.242;2022-09-09T09:51:46;5.85;;;2.35;;
13147;SDS011;6639;50.956;4.242;2022-09-09T09:54:15;3.72;;;1.98;;
13147;SDS011;6639;50.956;4.242;2022-09-09T09:56:48;5.25;;;2.05;;
13147;SDS011;6639;50.956;4.242;2022-09-09T09:59:21;4.28;;;1.73;;
13147;SDS011;6639;50.956;4.242;2022-09-09T10:01:49;2.63;;;1.70;;
13147;SDS011;6639;50.956;4.242;2022-09-09T10:04:17;3.42;;;1.92;;
13147;SDS011;6639;50.956;4.242;2022-09-09T10:06:48;4.97;;;1.90;;
13147;SDS011;6639;50.956;4.242;2022-09-09T10:09:22;8.40;;;2.38;;
13147;SDS011;6639;50.956;4.242;2022-09-09T10:11:53;5.72;;;2.08;;
13147;SDS011;6639;50.956;4.242;2022-09-09T10:14:28;6.43;;;2.15;;
13147;SDS011;6639;50.956;4.242;2022-09-09T10:17:03;4.20;;;1.90;;
13147;SDS011;6639;50.956;4.242;2022-09-09T10:19:39;6.47;;;2.22;;
13147;SDS011;6639;50.956;4.242;2022-09-09T10:22:15;4.35;;;1.85;;
13147;SDS011;6639;50.956;4.242;2022-09-09T10:24:56;3.88;;;2.17;;
13147;SDS011;6639;50.956;4.242;2022-09-09T10:27:35;6.30;;;1.80;;
13147;SDS011;6639;50.956;4.242;2022-09-09T10:30:12;6.88;;;2.05;;
13147;SDS011;6639;50.956;4.242;2022-09-09T10:32:46;5.97;;;2.38;;
13147;SDS011;6639;50.956;4.242;2022-09-09T10:35:25;5.82;;;1.58;;
13147;SDS011;6639;50.956;4.242;2022-09-09T10:40:48;3.95;;;1.65;;
13147;SDS011;6639;50.956;4.242;2022-09-09T10:43:42;4.05;;;1.63;;
13147;SDS011;6639;50.956;4.242;2022-09-09T10:46:26;6.10;;;2.40;;
13147;SDS011;6639;50.956;4.242;2022-09-09T10:49:03;5.82;;;1.83;;
13147;SDS011;6639;50.956;4.242;2022-09-09T10:51:43;5.75;;;1.67;;
13147;SDS011;6639;50.956;4.242;2022-09-09T10:54:25;5.32;;;2.17;;
13147;SDS011;6639;50.956;4.242;2022-09-09T10:57:02;6.15;;;1.70;;
13147;SDS011;6639;50.956;4.242;2022-09-09T10:59:36;7.97;;;2.15;;
13147;SDS011;6639;50.956;4.242;2022-09-09T11:02:12;6.60;;;1.88;;
13147;SDS011;6639;50.956;4.242;2022-09-09T11:04:45;4.32;;;2.00;;
13147;SDS011;6639;50.956;4.242;2022-09-09T11:07:18;4.88;;;1.80;;
13147;SDS011;6639;50.956;4.242;2022-09-09T11:09:53;5.00;;;1.63;;
13147;SDS011;6639;50.956;4.242;2022-09-09T11:12:26;2.97;;;1.50;;
13147;SDS011;6639;50.956;4.242;2022-09-09T11:14:55;4.00;;;1.67;;
13147;SDS011;6639;50.956;4.242;2022-09-09T11:17:30;4.40;;;1.50;;
13147;SDS011;6639;50.956;4.242;2022-09-09T11:20:04;3.95;;;1.48;;
13147;SDS011;6639;50.956;4.242;2022-09-09T11:22:33;5.25;;;1.88;;
13147;SDS011;6639;50.956;4.242;2022-09-09T11:25:04;4.57;;;1.45;;
13147;SDS011;6639;50.956;4.242;2022-09-09T11:27:36;4.55;;;1.40;;
13147;SDS011;6639;50.956;4.242;2022-09-09T11:30:18;2.83;;;1.52;;
13147;SDS011;6639;50.956;4.242;2022-09-09T11:33:01;3.55;;;1.35;;
13147;SDS011;6639;50.956;4.242;2022-09-09T11:35:48;3.80;;;1.77;;
13147;SDS011;6639;50.956;4.242;2022-09-09T11:38:28;3.40;;;1.02;;
13147;SDS011;6639;50.956;4.242;2022-09-09T11:41:00;4.13;;;1.13;;
13147;SDS011;6639;50.956;4.242;2022-09-09T11:43:30;4.50;;;1.52;;
13147;SDS011;6639;50.956;4.242;2022-09-09T11:46:00;3.90;;;1.58;;
13147;SDS011;6639;50.956;4.242;2022-09-09T11:48:32;3.53;;;1.73;;
13147;SDS011;6639;50.956;4.242;2022-09-09T11:51:02;2.83;;;1.65;;
13147;SDS011;6639;50.956;4.242;2022-09-09T11:53:32;3.40;;;1.63;;
13147;SDS011;6639;50.956;4.242;2022-09-09T11:56:00;2.13;;;1.10;;
13147;SDS011;6639;50.956;4.242;2022-09-09T11:58:31;3.67;;;1.30;;
13147;SDS011;6639;50.956;4.242;2022-09-09T12:01:12;3.03;;;1.42;;
13147;SDS011;6639;50.956;4.242;2022-09-09T12:03:42;2.30;;;1.48;;
13147;SDS011;6639;50.956;4.242;2022-09-09T12:06:13;2.53;;;1.40;;
13147;SDS011;6639;50.956;4.242;2022-09-09T12:08:46;3.75;;;1.27;;
13147;SDS011;6639;50.956;4.242;2022-09-09T12:11:24;6.05;;;1.67;;
13147;SDS011;6639;50.956;4.242;2022-09-09T12:13:53;5.53;;;1.48;;
13147;SDS011;6639;50.956;4.242;2022-09-09T12:16:30;4.95;;;1.60;;
13147;SDS011;6639;50.956;4.242;2022-09-09T12:19:13;3.90;;;1.55;;
13147;SDS011;6639;50.956;4.242;2022-09-09T12:21:43;4.13;;;1.17;;
13147;SDS011;6639;50.956;4.242;2022-09-09T12:24:17;3.63;;;1.65;;
13147;SDS011;6639;50.956;4.242;2022-09-09T12:26:52;3.25;;;1.48;;
13147;SDS011;6639;50.956;4.242;2022-09-09T12:29:25;4.10;;;1.40;;
13147;SDS011;6639;50.956;4.242;2022-09-09T12:31:59;2.90;;;1.38;;
13147;SDS011;6639;50.956;4.242;2022-09-09T12:34:37;4.25;;;1.45;;
13147;SDS011;6639;50.956;4.242;2022-09-09T12:37:08;4.82;;;1.73;;
13147;SDS011;6639;50.956;4.242;2022-09-09T12:39:44;2.10;;;1.20;;
13147;SDS011;6639;50.956;4.242;2022-09-09T12:42:16;4.25;;;1.42;;
13147;SDS011;6639;50.956;4.242;2022-09-09T12:44:50;3.58;;;1.55;;
13147;SDS011;6639;50.956;4.242;2022-09-09T12:47:21;1.75;;;1.30;;
13147;SDS011;6639;50.956;4.242;2022-09-09T12:49:53;2.13;;;1.20;;
13147;SDS011;6639;50.956;4.242;2022-09-09T12:52:23;5.50;;;1.67;;
13147;SDS011;6639;50.956;4.242;2022-09-09T12:54:55;4.50;;;1.02;;
13147;SDS011;6639;50.956;4.242;2022-09-09T12:57:23;3.47;;;1.15;;
13147;SDS011;6639;50.956;4.242;2022-09-09T12:59:51;2.28;;;1.20;;
13147;SDS011;6639;50.956;4.242;2022-09-09T13:02:29;3.47;;;1.42;;
13147;SDS011;6639;50.956;4.242;2022-09-09T13:05:05;3.60;;;1.33;;
13147;SDS011;6639;50.956;4.242;2022-09-09T13:07:33;2.53;;;1.05;;
13147;SDS011;6639;50.956;4.242;2022-09-09T13:09:59;2.22;;;1.23;;
13147;SDS011;6639;50.956;4.242;2022-09-09T13:12:26;1.95;;;1.33;;
13147;SDS011;6639;50.956;4.242;2022-09-09T13:14:53;4.00;;;1.63;;
13147;SDS011;6639;50.956;4.242;2022-09-09T13:17:25;3.03;;;1.17;;
13147;SDS011;6639;50.956;4.242;2022-09-09T13:19:54;4.35;;;1.48;;
13147;SDS011;6639;50.956;4.242;2022-09-09T13:22:28;2.03;;;1.60;;
13147;SDS011;6639;50.956;4.242;2022-09-09T13:24:58;2.35;;;1.25;;
13147;SDS011;6639;50.956;4.242;2022-09-09T13:27:28;4.03;;;1.60;;
13147;SDS011;6639;50.956;4.242;2022-09-09T13:29:56;2.20;;;1.40;;
13147;SDS011;6639;50.956;4.242;2022-09-09T13:32:23;2.83;;;1.38;;
13147;SDS011;6639;50.956;4.242;2022-09-09T13:34:52;2.85;;;1.15;;
13147;SDS011;6639;50.956;4.242;2022-09-09T13:37:22;2.20;;;1.00;;
13147;SDS011;6639;50.956;4.242;2022-09-09T13:39:55;4.65;;;1.33;;
13147;SDS011;6639;50.956;4.242;2022-09-09T13:42:24;3.35;;;1.17;;
13147;SDS011;6639;50.956;4.242;2022-09-09T13:44:52;2.55;;;1.30;;
13147;SDS011;6639;50.956;4.242;2022-09-09T13:47:21;1.80;;;1.40;;
13147;SDS011;6639;50.956;4.242;2022-09-09T13:49:53;2.25;;;1.23;;
13147;SDS011;6639;50.956;4.242;2022-09-09T13:52:20;2.40;;;1.10;;
13147;SDS011;6639;50.956;4.242;2022-09-09T13:54:48;2.28;;;1.20;;
13147;SDS011;6639;50.956;4.242;2022-09-09T13:57:17;1.40;;;1.05;;
13147;SDS011;6639;50.956;4.242;2022-09-09T13:59:45;3.55;;;1.23;;
13147;SDS011;6639;50.956;4.242;2022-09-09T14:02:12;2.47;;;1.30;;
13147;SDS011;6639;50.956;4.242;2022-09-09T14:04:39;2.38;;;0.85;;
13147;SDS011;6639;50.956;4.242;2022-09-09T14:07:08;1.25;;;1.10;;
13147;SDS011;6639;50.956;4.242;2022-09-09T14:09:37;1.55;;;0.90;;
13147;SDS011;6639;50.956;4.242;2022-09-09T14:12:08;2.55;;;1.30;;
13147;SDS011;6639;50.956;4.242;2022-09-09T14:14:35;1.90;;;1.10;;
13147;SDS011;6639;50.956;4.242;2022-09-09T14:17:02;2.55;;;1.20;;
13147;SDS011;6639;50.956;4.242;2022-09-09T14:19:32;1.70;;;1.10;;
13147;SDS011;6639;50.956;4.242;2022-09-09T14:21:58;4.05;;;1.50;;
13147;SDS011;6639;50.956;4.242;2022-09-09T14:24:26;3.35;;;1.10;;
13147;SDS011;6639;50.956;4.242;2022-09-09T14:26:53;2.50;;;1.10;;
13147;SDS011;6639;50.956;4.242;2022-09-09T14:29:21;3.75;;;1.80;;
13147;SDS011;6639;50.956;4.242;2022-09-09T14:31:50;3.83;;;1.55;;
13147;SDS011;6639;50.956;4.242;2022-09-09T14:34:17;3.28;;;1.27;;
13147;SDS011;6639;50.956;4.242;2022-09-09T14:36:44;2.20;;;1.40;;
13147;SDS011;6639;50.956;4.242;2022-09-09T14:39:12;4.18;;;1.65;;
13147;SDS011;6639;50.956;4.242;2022-09-09T14:41:39;1.65;;;1.27;;
13147;SDS011;6639;50.956;4.242;2022-09-09T14:44:06;4.47;;;1.55;;
13147;SDS011;6639;50.956;4.242;2022-09-09T14:46:34;2.17;;;1.13;;
13147;SDS011;6639;50.956;4.242;2022-09-09T14:49:01;3.47;;;1.17;;
13147;SDS011;6639;50.956;4.242;2022-09-09T14:51:29;2.95;;;1.10;;
13147;SDS011;6639;50.956;4.242;2022-09-09T14:53:57;2.38;;;1.27;;
13147;SDS011;6639;50.956;4.242;2022-09-09T14:56:26;2.15;;;1.35;;
13147;SDS011;6639;50.956;4.242;2022-09-09T14:58:55;3.25;;;1.20;;
13147;SDS011;6639;50.956;4.242;2022-09-09T15:01:23;1.95;;;1.17;;
13147;SDS011;6639;50.956;4.242;2022-09-09T15:03:53;1.75;;;1.20;;
13147;SDS011;6639;50.956;4.242;2022-09-09T15:06:23;2.63;;;1.20;;
13147;SDS011;6639;50.956;4.242;2022-09-09T15:08:51;3.50;;;1.02;;
13147;SDS011;6639;50.956;4.242;2022-09-09T15:11:19;3.30;;;1.25;;
13147;SDS011;6639;50.956;4.242;2022-09-09T15:13:47;2.30;;;1.25;;
13147;SDS011;6639;50.956;4.242;2022-09-09T15:16:19;3.25;;;1.33;;
13147;SDS011;6639;50.956;4.242;2022-09-09T15:18:50;4.03;;;1.42;;
13147;SDS011;6639;50.956;4.242;2022-09-09T15:21:21;4.25;;;1.65;;
13147;SDS011;6639;50.956;4.242;2022-09-09T15:23:49;2.70;;;1.55;;
13147;SDS011;6639;50.956;4.242;2022-09-09T15:26:17;2.03;;;1.50;;